sensor_id;sensor_type;location;lat;lon;timestamp;pressure;altitude;pressure_sealevel;temperature;humidity
50105;BME280;47690;39.202;-77.198;2023-05-07T00:01:06;100655.59;;;47.26;7.07
50105;BME280;47690;39.202;-77.198;2023-05-07T00:03:38;100650.53;;;47.83;6.96
50105;BME280;47690;39.202;-77.198;2023-05-07T00:06:17;100654.03;;;48.21;6.59
50105;BME280;47690;39.202;-77.198;2023-05-07T00:08:50;100652.94;;;48.27;6.30
50105;BME280;47690;39.202;-77.198;2023-05-07T00:11:21;100652.38;;;48.15;6.83
50105;BME280;47690;39.202;-77.198;2023-05-07T00:13:52;100654.22;;;48.04;6.52
50105;BME280;47690;39.202;-77.198;2023-05-07T00:16:22;100652.22;;;47.89;7.06
50105;BME280;47690;39.202;-77.198;2023-05-07T00:18:54;100653.59;;;47.92;6.72
50105;BME280;47690;39.202;-77.198;2023-05-07T00:21:24;100649.75;;;47.88;6.80
50105;BME280;47690;39.202;-77.198;2023-05-07T00:23:56;100654.34;;;47.82;6.97
50105;BME280;47690;39.202;-77.198;2023-05-07T00:26:28;100659.41;;;47.63;6.95
50105;BME280;47690;39.202;-77.198;2023-05-07T00:29:00;100659.34;;;47.52;6.74
50105;BME280;47690;39.202;-77.198;2023-05-07T00:31:33;100660.72;;;47.55;6.88
50105;BME280;47690;39.202;-77.198;2023-05-07T00:34:06;100669.91;;;47.43;7.00
50105;BME280;47690;39.202;-77.198;2023-05-07T00:36:38;100667.44;;;47.37;7.38
50105;BME280;47690;39.202;-77.198;2023-05-07T00:39:15;100663.22;;;47.29;6.78
50105;BME280;47690;39.202;-77.198;2023-05-07T00:41:47;100668.56;;;47.13;7.23
50105;BME280;47690;39.202;-77.198;2023-05-07T00:44:18;100667.25;;;46.94;7.07
50105;BME280;47690;39.202;-77.198;2023-05-07T00:46:50;100666.88;;;45.95;8.06
50105;BME280;47690;39.202;-77.198;2023-05-07T00:49:22;100669.47;;;45.68;8.18
50105;BME280;47690;39.202;-77.198;2023-05-07T00:51:56;100685.13;;;46.17;7.96
50105;BME280;47690;39.202;-77.198;2023-05-07T00:54:29;100683.28;;;47.12;7.34
50105;BME280;47690;39.202;-77.198;2023-05-07T00:57:03;100686.13;;;47.28;7.52
50105;BME280;47690;39.202;-77.198;2023-05-07T01:00:42;100678.91;;;47.11;7.31
50105;BME280;47690;39.202;-77.198;2023-05-07T01:03:16;100674.34;;;45.83;7.72
50105;BME280;47690;39.202;-77.198;2023-05-07T01:05:48;100687.63;;;45.62;8.29
50105;BME280;47690;39.202;-77.198;2023-05-07T01:08:20;100690.38;;;45.33;8.04
50105;BME280;47690;39.202;-77.198;2023-05-07T01:10:53;100690.31;;;45.79;8.05
50105;BME280;47690;39.202;-77.198;2023-05-07T01:13:26;100690.16;;;45.69;7.77
50105;BME280;47690;39.202;-77.198;2023-05-07T01:15:59;100686.22;;;46.16;7.58
50105;BME280;47690;39.202;-77.198;2023-05-07T01:18:32;100686.09;;;46.06;8.00
50105;BME280;47690;39.202;-77.198;2023-05-07T01:21:04;100687.50;;;45.23;7.99
50105;BME280;47690;39.202;-77.198;2023-05-07T01:23:37;100698.59;;;45.04;8.41
50105;BME280;47690;39.202;-77.198;2023-05-07T01:26:12;100694.81;;;44.93;8.53
50105;BME280;47690;39.202;-77.198;2023-05-07T01:28:46;100699.78;;;44.96;8.38
50105;BME280;47690;39.202;-77.198;2023-05-07T01:31:17;100699.88;;;45.01;8.70
50105;BME280;47690;39.202;-77.198;2023-05-07T01:33:51;100702.06;;;45.46;8.05
50105;BME280;47690;39.202;-77.198;2023-05-07T01:36:24;100718.19;;;45.52;8.04
50105;BME280;47690;39.202;-77.198;2023-05-07T01:39:02;100713.34;;;45.25;8.46
50105;BME280;47690;39.202;-77.198;2023-05-07T01:41:36;100708.97;;;44.95;8.09
50105;BME280;47690;39.202;-77.198;2023-05-07T01:44:21;100711.00;;;45.00;8.45
50105;BME280;47690;39.202;-77.198;2023-05-07T01:46:56;100710.38;;;44.69;8.91
50105;BME280;47690;39.202;-77.198;2023-05-07T01:49:36;100715.28;;;44.43;8.41
50105;BME280;47690;39.202;-77.198;2023-05-07T01:52:12;100723.44;;;44.31;8.57
50105;BME280;47690;39.202;-77.198;2023-05-07T01:54:48;100721.66;;;44.89;8.65
50105;BME280;47690;39.202;-77.198;2023-05-07T01:57:18;100721.81;;;44.59;8.75
50105;BME280;47690;39.202;-77.198;2023-05-07T01:59:51;100728.75;;;44.26;9.06
50105;BME280;47690;39.202;-77.198;2023-05-07T02:02:24;100722.25;;;44.27;8.74
50105;BME280;47690;39.202;-77.198;2023-05-07T02:04:58;100714.31;;;46.39;8.09
50105;BME280;47690;39.202;-77.198;2023-05-07T02:07:30;100710.94;;;44.83;8.76
50105;BME280;47690;39.202;-77.198;2023-05-07T02:10:02;100716.25;;;44.25;8.75
50105;BME280;47690;39.202;-77.198;2023-05-07T02:12:33;100714.22;;;44.08;9.01
50105;BME280;47690;39.202;-77.198;2023-05-07T02:15:04;100714.56;;;44.00;8.78
50105;BME280;47690;39.202;-77.198;2023-05-07T02:17:39;100706.91;;;44.44;8.57
50105;BME280;47690;39.202;-77.198;2023-05-07T02:20:33;100703.84;;;44.41;9.15
50105;BME280;47690;39.202;-77.198;2023-05-07T02:23:10;100699.47;;;43.92;9.20
50105;BME280;47690;39.202;-77.198;2023-05-07T02:25:45;100699.84;;;43.84;9.17
50105;BME280;47690;39.202;-77.198;2023-05-07T02:28:21;100701.13;;;44.05;8.70
50105;BME280;47690;39.202;-77.198;2023-05-07T02:30:58;100700.91;;;43.94;9.34
50105;BME280;47690;39.202;-77.198;2023-05-07T02:33:33;100707.09;;;43.59;9.30
50105;BME280;47690;39.202;-77.198;2023-05-07T02:36:09;100701.09;;;43.69;9.28
50105;BME280;47690;39.202;-77.198;2023-05-07T02:39:00;100704.50;;;43.52;9.19
50105;BME280;47690;39.202;-77.198;2023-05-07T02:41:30;100706.88;;;43.73;9.30
50105;BME280;47690;39.202;-77.198;2023-05-07T02:44:02;100700.78;;;43.89;9.16
50105;BME280;47690;39.202;-77.198;2023-05-07T02:46:57;100705.84;;;44.33;9.42
50105;BME280;47690;39.202;-77.198;2023-05-07T02:49:33;100707.44;;;43.75;8.94
50105;BME280;47690;39.202;-77.198;2023-05-07T02:52:04;100699.81;;;43.72;9.23
50105;BME280;47690;39.202;-77.198;2023-05-07T02:54:39;100706.16;;;43.65;9.16
50105;BME280;47690;39.202;-77.198;2023-05-07T02:57:12;100707.91;;;43.17;9.41
50105;BME280;47690;39.202;-77.198;2023-05-07T02:59:45;100707.88;;;43.48;9.36
50105;BME280;47690;39.202;-77.198;2023-05-07T03:02:21;100709.59;;;43.30;9.33
50105;BME280;47690;39.202;-77.198;2023-05-07T03:04:52;100712.63;;;43.22;9.21
50105;BME280;47690;39.202;-77.198;2023-05-07T03:07:25;100712.84;;;42.71;9.77
50105;BME280;47690;39.202;-77.198;2023-05-07T03:10:00;100704.81;;;42.64;9.65
50105;BME280;47690;39.202;-77.198;2023-05-07T03:12:32;100704.75;;;42.52;9.82
50105;BME280;47690;39.202;-77.198;2023-05-07T03:15:04;100706.38;;;42.72;9.71
50105;BME280;47690;39.202;-77.198;2023-05-07T03:17:36;100707.06;;;42.49;9.86
50105;BME280;47690;39.202;-77.198;2023-05-07T03:20:12;100699.00;;;42.42;9.59
50105;BME280;47690;39.202;-77.198;2023-05-07T03:22:48;100705.38;;;42.48;9.84
50105;BME280;47690;39.202;-77.198;2023-05-07T03:25:21;100692.16;;;42.21;10.00
50105;BME280;47690;39.202;-77.198;2023-05-07T03:27:56;100690.16;;;42.53;9.83
50105;BME280;47690;39.202;-77.198;2023-05-07T03:30:37;100691.19;;;42.08;10.03
50105;BME280;47690;39.202;-77.198;2023-05-07T03:33:53;100692.22;;;42.32;10.03
50105;BME280;47690;39.202;-77.198;2023-05-07T03:36:25;100684.19;;;42.00;10.03
50105;BME280;47690;39.202;-77.198;2023-05-07T03:39:00;100684.63;;;41.97;9.91
50105;BME280;47690;39.202;-77.198;2023-05-07T03:41:39;100684.63;;;41.97;9.98
50105;BME280;47690;39.202;-77.198;2023-05-07T03:44:13;100684.94;;;42.08;9.65
50105;BME280;47690;39.202;-77.198;2023-05-07T03:46:47;100687.94;;;41.99;10.02
50105;BME280;47690;39.202;-77.198;2023-05-07T03:49:20;100685.00;;;42.26;9.57
50105;BME280;47690;39.202;-77.198;2023-05-07T03:51:53;100682.81;;;41.91;9.95
50105;BME280;47690;39.202;-77.198;2023-05-07T03:54:24;100676.44;;;41.85;10.08
50105;BME280;47690;39.202;-77.198;2023-05-07T03:56:56;100671.09;;;41.78;9.90
50105;BME280;47690;39.202;-77.198;2023-05-07T03:59:26;100667.41;;;41.66;9.98
50105;BME280;47690;39.202;-77.198;2023-05-07T04:01:59;100673.25;;;41.63;9.92
50105;BME280;47690;39.202;-77.198;2023-05-07T04:04:34;100673.44;;;41.68;10.17
50105;BME280;47690;39.202;-77.198;2023-05-07T04:07:09;100670.03;;;41.80;9.75
50105;BME280;47690;39.202;-77.198;2023-05-07T04:10:12;100670.63;;;42.26;10.17
50105;BME280;47690;39.202;-77.198;2023-05-07T04:14:06;100670.19;;;42.48;9.52
50105;BME280;47690;39.202;-77.198;2023-05-07T04:16:50;100669.50;;;42.15;9.63
50105;BME280;47690;39.202;-77.198;2023-05-07T04:19:23;100657.47;;;41.60;10.11
50105;BME280;47690;39.202;-77.198;2023-05-07T04:21:55;100646.75;;;41.46;10.26
50105;BME280;47690;39.202;-77.198;2023-05-07T04:24:31;100647.03;;;41.38;10.28
50105;BME280;47690;39.202;-77.198;2023-05-07T04:27:06;100646.25;;;41.31;9.83
50105;BME280;47690;39.202;-77.198;2023-05-07T04:29:37;100646.31;;;41.24;10.34
50105;BME280;47690;39.202;-77.198;2023-05-07T04:32:24;100640.78;;;41.37;10.17
50105;BME280;47690;39.202;-77.198;2023-05-07T04:35:53;100634.56;;;41.37;10.33
50105;BME280;47690;39.202;-77.198;2023-05-07T04:38:42;100634.84;;;41.29;10.61
50105;BME280;47690;39.202;-77.198;2023-05-07T04:41:43;100629.84;;;41.32;10.28
50105;BME280;47690;39.202;-77.198;2023-05-07T04:44:16;100624.34;;;41.71;10.04
50105;BME280;47690;39.202;-77.198;2023-05-07T04:46:47;100626.84;;;42.17;9.46
50105;BME280;47690;39.202;-77.198;2023-05-07T04:49:18;100630.28;;;42.24;9.50
50105;BME280;47690;39.202;-77.198;2023-05-07T04:51:49;100620.53;;;42.23;9.33
50105;BME280;47690;39.202;-77.198;2023-05-07T04:54:22;100621.63;;;42.15;9.41
50105;BME280;47690;39.202;-77.198;2023-05-07T04:56:52;100618.34;;;42.13;9.42
50105;BME280;47690;39.202;-77.198;2023-05-07T04:59:24;100618.50;;;41.93;9.55
50105;BME280;47690;39.202;-77.198;2023-05-07T05:01:54;100614.38;;;41.90;9.55
50105;BME280;47690;39.202;-77.198;2023-05-07T05:04:25;100620.69;;;41.59;9.70
50105;BME280;47690;39.202;-77.198;2023-05-07T05:06:54;100620.94;;;42.01;9.72
50105;BME280;47690;39.202;-77.198;2023-05-07T05:09:26;100617.59;;;41.30;10.23
50105;BME280;47690;39.202;-77.198;2023-05-07T05:11:56;100624.63;;;40.99;10.30
50105;BME280;47690;39.202;-77.198;2023-05-07T05:14:25;100622.34;;;40.95;10.42
50105;BME280;47690;39.202;-77.198;2023-05-07T05:16:56;100621.75;;;41.26;10.29
50105;BME280;47690;39.202;-77.198;2023-05-07T05:19:26;100621.00;;;40.79;10.50
50105;BME280;47690;39.202;-77.198;2023-05-07T05:21:56;100625.19;;;40.62;10.62
50105;BME280;47690;39.202;-77.198;2023-05-07T05:24:26;100615.19;;;40.76;10.51
50105;BME280;47690;39.202;-77.198;2023-05-07T05:26:57;100623.34;;;40.62;10.23
50105;BME280;47690;39.202;-77.198;2023-05-07T05:29:30;100616.34;;;40.41;10.34
50105;BME280;47690;39.202;-77.198;2023-05-07T05:32:01;100614.59;;;40.67;10.09
50105;BME280;47690;39.202;-77.198;2023-05-07T05:34:32;100611.59;;;41.78;9.57
50105;BME280;47690;39.202;-77.198;2023-05-07T05:37:04;100612.97;;;41.88;9.84
50105;BME280;47690;39.202;-77.198;2023-05-07T05:39:34;100608.03;;;41.53;9.85
50105;BME280;47690;39.202;-77.198;2023-05-07T05:42:05;100603.53;;;41.46;10.00
50105;BME280;47690;39.202;-77.198;2023-05-07T05:44:36;100604.56;;;41.45;10.00
50105;BME280;47690;39.202;-77.198;2023-05-07T05:47:06;100599.88;;;41.02;9.83
50105;BME280;47690;39.202;-77.198;2023-05-07T05:49:36;100592.16;;;41.05;10.32
50105;BME280;47690;39.202;-77.198;2023-05-07T05:52:08;100597.25;;;40.49;10.13
50105;BME280;47690;39.202;-77.198;2023-05-07T05:54:41;100588.75;;;40.39;10.13
50105;BME280;47690;39.202;-77.198;2023-05-07T05:57:12;100592.69;;;40.36;10.58
50105;BME280;47690;39.202;-77.198;2023-05-07T05:59:43;100591.66;;;40.44;10.69
50105;BME280;47690;39.202;-77.198;2023-05-07T06:02:15;100579.69;;;40.13;10.66
50105;BME280;47690;39.202;-77.198;2023-05-07T06:04:46;100587.13;;;40.24;10.68
50105;BME280;47690;39.202;-77.198;2023-05-07T06:07:20;100585.13;;;39.93;10.81
50105;BME280;47690;39.202;-77.198;2023-05-07T06:09:51;100587.41;;;39.89;10.86
50105;BME280;47690;39.202;-77.198;2023-05-07T06:12:22;100584.00;;;40.21;10.25
50105;BME280;47690;39.202;-77.198;2023-05-07T06:14:52;100591.13;;;39.88;10.46
50105;BME280;47690;39.202;-77.198;2023-05-07T06:17:22;100588.66;;;39.80;10.57
50105;BME280;47690;39.202;-77.198;2023-05-07T06:19:52;100582.00;;;39.82;10.56
50105;BME280;47690;39.202;-77.198;2023-05-07T06:22:22;100583.47;;;39.71;10.70
50105;BME280;47690;39.202;-77.198;2023-05-07T06:24:52;100574.97;;;39.81;10.63
50105;BME280;47690;39.202;-77.198;2023-05-07T06:27:23;100568.31;;;39.84;11.02
50105;BME280;47690;39.202;-77.198;2023-05-07T06:29:54;100565.63;;;39.77;10.79
50105;BME280;47690;39.202;-77.198;2023-05-07T06:32:25;100573.59;;;40.38;10.04
50105;BME280;47690;39.202;-77.198;2023-05-07T06:34:55;100574.56;;;39.78;10.64
50105;BME280;47690;39.202;-77.198;2023-05-07T06:37:26;100571.03;;;39.77;10.80
50105;BME280;47690;39.202;-77.198;2023-05-07T06:40:00;100570.25;;;40.42;10.20
50105;BME280;47690;39.202;-77.198;2023-05-07T06:42:32;100565.72;;;40.36;9.95
50105;BME280;47690;39.202;-77.198;2023-05-07T06:45:20;100555.38;;;40.72;9.99
50105;BME280;47690;39.202;-77.198;2023-05-07T06:47:49;100553.09;;;40.23;10.23
50105;BME280;47690;39.202;-77.198;2023-05-07T06:50:20;100550.91;;;39.66;10.65
50105;BME280;47690;39.202;-77.198;2023-05-07T06:52:53;100553.84;;;39.58;10.73
50105;BME280;47690;39.202;-77.198;2023-05-07T06:55:24;100558.41;;;39.57;10.82
50105;BME280;47690;39.202;-77.198;2023-05-07T06:57:56;100552.16;;;39.43;10.55
50105;BME280;47690;39.202;-77.198;2023-05-07T07:00:29;100552.78;;;39.59;10.80
50105;BME280;47690;39.202;-77.198;2023-05-07T07:03:00;100558.19;;;39.45;10.76
50105;BME280;47690;39.202;-77.198;2023-05-07T07:05:30;100547.81;;;39.49;10.74
50105;BME280;47690;39.202;-77.198;2023-05-07T07:08:02;100552.56;;;39.33;10.84
50105;BME280;47690;39.202;-77.198;2023-05-07T07:10:32;100545.53;;;39.32;10.53
50105;BME280;47690;39.202;-77.198;2023-05-07T07:13:03;100546.16;;;39.41;10.71
50105;BME280;47690;39.202;-77.198;2023-05-07T07:15:33;100540.34;;;39.38;10.64
50105;BME280;47690;39.202;-77.198;2023-05-07T07:18:04;100544.91;;;39.71;10.38
50105;BME280;47690;39.202;-77.198;2023-05-07T07:20:34;100544.72;;;39.32;11.01
50105;BME280;47690;39.202;-77.198;2023-05-07T07:23:05;100544.91;;;39.24;10.88
50105;BME280;47690;39.202;-77.198;2023-05-07T07:25:36;100548.44;;;39.24;10.76
50105;BME280;47690;39.202;-77.198;2023-05-07T07:28:06;100545.75;;;39.24;10.90
50105;BME280;47690;39.202;-77.198;2023-05-07T07:30:40;100546.38;;;39.19;10.93
50105;BME280;47690;39.202;-77.198;2023-05-07T07:33:11;100549.47;;;39.16;11.08
50105;BME280;47690;39.202;-77.198;2023-05-07T07:35:44;100542.00;;;39.12;10.98
50105;BME280;47690;39.202;-77.198;2023-05-07T07:38:16;100541.56;;;39.08;10.78
50105;BME280;47690;39.202;-77.198;2023-05-07T07:40:48;100541.00;;;39.53;10.88
50105;BME280;47690;39.202;-77.198;2023-05-07T07:43:18;100533.50;;;39.75;10.65
50105;BME280;47690;39.202;-77.198;2023-05-07T07:45:49;100533.75;;;39.20;10.78
50105;BME280;47690;39.202;-77.198;2023-05-07T07:48:20;100521.28;;;38.99;11.01
50105;BME280;47690;39.202;-77.198;2023-05-07T07:50:50;100521.50;;;39.04;10.73
50105;BME280;47690;39.202;-77.198;2023-05-07T07:53:20;100521.09;;;39.20;10.77
50105;BME280;47690;39.202;-77.198;2023-05-07T07:55:50;100520.25;;;39.13;10.99
50105;BME280;47690;39.202;-77.198;2023-05-07T07:58:29;100514.25;;;39.31;10.73
50105;BME280;47690;39.202;-77.198;2023-05-07T08:00:59;100512.38;;;39.12;10.67
50105;BME280;47690;39.202;-77.198;2023-05-07T08:03:29;100510.72;;;39.11;10.69
50105;BME280;47690;39.202;-77.198;2023-05-07T08:06:02;100518.41;;;39.14;10.39
50105;BME280;47690;39.202;-77.198;2023-05-07T08:08:34;100515.91;;;39.39;10.55
50105;BME280;47690;39.202;-77.198;2023-05-07T08:11:04;100521.28;;;39.66;10.39
50105;BME280;47690;39.202;-77.198;2023-05-07T08:13:36;100524.78;;;39.73;10.01
50105;BME280;47690;39.202;-77.198;2023-05-07T08:16:09;100532.50;;;40.29;9.92
50105;BME280;47690;39.202;-77.198;2023-05-07T08:18:45;100531.63;;;39.76;10.46
50105;BME280;47690;39.202;-77.198;2023-05-07T08:21:16;100534.97;;;39.65;10.21
50105;BME280;47690;39.202;-77.198;2023-05-07T08:23:46;100533.75;;;39.54;10.38
50105;BME280;47690;39.202;-77.198;2023-05-07T08:26:17;100522.53;;;40.75;9.81
50105;BME280;47690;39.202;-77.198;2023-05-07T08:28:48;100526.81;;;40.05;10.08
50105;BME280;47690;39.202;-77.198;2023-05-07T08:31:18;100533.31;;;39.23;10.41
50105;BME280;47690;39.202;-77.198;2023-05-07T08:33:50;100528.28;;;38.93;10.71
50105;BME280;47690;39.202;-77.198;2023-05-07T08:36:20;100531.19;;;38.91;10.61
50105;BME280;47690;39.202;-77.198;2023-05-07T08:38:50;100521.44;;;38.90;10.84
50105;BME280;47690;39.202;-77.198;2023-05-07T08:41:21;100515.44;;;38.88;10.77
50105;BME280;47690;39.202;-77.198;2023-05-07T08:43:52;100519.75;;;38.83;10.66
50105;BME280;47690;39.202;-77.198;2023-05-07T08:46:24;100518.94;;;38.75;10.98
50105;BME280;47690;39.202;-77.198;2023-05-07T08:48:56;100514.19;;;38.77;10.78
50105;BME280;47690;39.202;-77.198;2023-05-07T08:51:26;100510.00;;;38.61;11.06
50105;BME280;47690;39.202;-77.198;2023-05-07T08:53:58;100508.13;;;38.55;10.83
50105;BME280;47690;39.202;-77.198;2023-05-07T08:56:33;100501.56;;;38.85;10.72
50105;BME280;47690;39.202;-77.198;2023-05-07T08:59:04;100490.75;;;38.64;10.91
50105;BME280;47690;39.202;-77.198;2023-05-07T09:01:36;100498.91;;;39.32;10.45
50105;BME280;47690;39.202;-77.198;2023-05-07T09:04:07;100495.59;;;39.37;10.20
50105;BME280;47690;39.202;-77.198;2023-05-07T09:06:42;100494.50;;;38.70;10.58
50105;BME280;47690;39.202;-77.198;2023-05-07T09:09:16;100497.94;;;38.50;11.01
50105;BME280;47690;39.202;-77.198;2023-05-07T09:11:56;100488.47;;;38.68;10.77
50105;BME280;47690;39.202;-77.198;2023-05-07T09:14:31;100489.44;;;38.47;11.01
50105;BME280;47690;39.202;-77.198;2023-05-07T09:17:02;100473.50;;;38.32;10.87
50105;BME280;47690;39.202;-77.198;2023-05-07T09:19:33;100465.78;;;39.11;10.55
50105;BME280;47690;39.202;-77.198;2023-05-07T09:22:06;100456.47;;;39.00;10.45
50105;BME280;47690;39.202;-77.198;2023-05-07T09:24:59;100450.44;;;39.12;10.39
50105;BME280;47690;39.202;-77.198;2023-05-07T09:27:30;100445.47;;;39.15;10.33
50105;BME280;47690;39.202;-77.198;2023-05-07T09:30:05;100448.56;;;39.19;10.84
50105;BME280;47690;39.202;-77.198;2023-05-07T09:32:37;100445.06;;;39.18;10.48
50105;BME280;47690;39.202;-77.198;2023-05-07T09:35:16;100449.78;;;38.69;10.77
50105;BME280;47690;39.202;-77.198;2023-05-07T09:38:00;100448.72;;;38.57;10.82
50105;BME280;47690;39.202;-77.198;2023-05-07T09:40:36;100447.69;;;38.51;10.89
50105;BME280;47690;39.202;-77.198;2023-05-07T09:43:13;100442.94;;;38.53;11.05
50105;BME280;47690;39.202;-77.198;2023-05-07T09:45:50;100444.59;;;38.54;10.57
50105;BME280;47690;39.202;-77.198;2023-05-07T09:48:25;100446.88;;;38.64;10.75
50105;BME280;47690;39.202;-77.198;2023-05-07T09:50:57;100443.97;;;38.59;10.94
50105;BME280;47690;39.202;-77.198;2023-05-07T09:53:35;100441.69;;;38.62;11.01
50105;BME280;47690;39.202;-77.198;2023-05-07T09:56:06;100439.44;;;38.59;10.91
50105;BME280;47690;39.202;-77.198;2023-05-07T09:58:39;100438.38;;;38.60;10.94
50105;BME280;47690;39.202;-77.198;2023-05-07T10:01:13;100433.00;;;38.60;11.00
50105;BME280;47690;39.202;-77.198;2023-05-07T10:03:44;100436.72;;;38.66;10.75
50105;BME280;47690;39.202;-77.198;2023-05-07T10:06:16;100438.00;;;38.84;11.03
50105;BME280;47690;39.202;-77.198;2023-05-07T10:08:46;100438.59;;;38.72;11.08
50105;BME280;47690;39.202;-77.198;2023-05-07T10:11:17;100437.97;;;38.77;10.73
50105;BME280;47690;39.202;-77.198;2023-05-07T10:13:48;100430.75;;;38.84;11.01
50105;BME280;47690;39.202;-77.198;2023-05-07T10:16:20;100429.50;;;38.87;11.02
50105;BME280;47690;39.202;-77.198;2023-05-07T10:18:51;100428.88;;;38.85;10.98
50105;BME280;47690;39.202;-77.198;2023-05-07T10:21:27;100430.75;;;38.77;11.27
50105;BME280;47690;39.202;-77.198;2023-05-07T10:24:05;100439.00;;;38.83;11.01
50105;BME280;47690;39.202;-77.198;2023-05-07T10:26:37;100443.38;;;38.84;11.06
50105;BME280;47690;39.202;-77.198;2023-05-07T10:35:06;100458.50;;;39.12;10.96
50105;BME280;47690;39.202;-77.198;2023-05-07T10:37:39;100454.16;;;39.51;10.53
50105;BME280;47690;39.202;-77.198;2023-05-07T10:40:11;100444.59;;;39.55;10.35
50105;BME280;47690;39.202;-77.198;2023-05-07T10:42:56;100442.94;;;39.27;11.27
50105;BME280;47690;39.202;-77.198;2023-05-07T10:45:29;100444.66;;;39.01;11.06
50105;BME280;47690;39.202;-77.198;2023-05-07T10:51:21;100453.44;;;39.90;10.62
50105;BME280;47690;39.202;-77.198;2023-05-07T10:54:18;100450.63;;;39.30;10.79
50105;BME280;47690;39.202;-77.198;2023-05-07T10:56:55;100452.03;;;39.60;10.72
50105;BME280;47690;39.202;-77.198;2023-05-07T10:59:33;100447.00;;;39.84;10.95
50105;BME280;47690;39.202;-77.198;2023-05-07T11:02:13;100447.97;;;40.81;10.25
50105;BME280;47690;39.202;-77.198;2023-05-07T11:05:20;100444.72;;;40.33;10.56
50105;BME280;47690;39.202;-77.198;2023-05-07T11:08:09;100454.72;;;39.60;10.55
50105;BME280;47690;39.202;-77.198;2023-05-07T11:10:56;100458.50;;;39.45;11.42
50105;BME280;47690;39.202;-77.198;2023-05-07T11:13:47;100451.44;;;39.58;11.30
50105;BME280;47690;39.202;-77.198;2023-05-07T11:16:46;100444.59;;;39.55;11.10
50105;BME280;47690;39.202;-77.198;2023-05-07T11:19:54;100436.47;;;39.75;11.39
50105;BME280;47690;39.202;-77.198;2023-05-07T11:25:21;100414.69;;;39.70;11.00
50105;BME280;47690;39.202;-77.198;2023-05-07T11:28:06;100412.22;;;39.69;11.09
50105;BME280;47690;39.202;-77.198;2023-05-07T11:30:50;100410.75;;;39.73;10.93
50105;BME280;47690;39.202;-77.198;2023-05-07T11:33:22;100423.59;;;39.71;11.15
50105;BME280;47690;39.202;-77.198;2023-05-07T11:35:58;100425.44;;;39.77;11.22
50105;BME280;47690;39.202;-77.198;2023-05-07T11:38:38;100405.91;;;39.95;11.74
50105;BME280;47690;39.202;-77.198;2023-05-07T11:41:07;100394.78;;;40.17;11.03
50105;BME280;47690;39.202;-77.198;2023-05-07T11:43:40;100387.75;;;40.16;11.43
50105;BME280;47690;39.202;-77.198;2023-05-07T11:46:24;100395.13;;;40.34;10.88
50105;BME280;47690;39.202;-77.198;2023-05-07T11:48:55;100393.81;;;40.43;11.44
50105;BME280;47690;39.202;-77.198;2023-05-07T11:51:25;100401.22;;;40.55;11.19
50105;BME280;47690;39.202;-77.198;2023-05-07T11:53:58;100383.94;;;41.32;10.79
50105;BME280;47690;39.202;-77.198;2023-05-07T11:56:28;100371.75;;;41.60;10.70
50105;BME280;47690;39.202;-77.198;2023-05-07T11:58:57;100368.91;;;41.36;10.53
50105;BME280;47690;39.202;-77.198;2023-05-07T12:01:28;100371.38;;;41.19;10.80
50105;BME280;47690;39.202;-77.198;2023-05-07T12:03:58;100365.66;;;41.84;10.71
50105;BME280;47690;39.202;-77.198;2023-05-07T12:06:30;100374.94;;;41.39;10.64
50105;BME280;47690;39.202;-77.198;2023-05-07T12:09:00;100383.22;;;41.56;10.87
50105;BME280;47690;39.202;-77.198;2023-05-07T12:11:30;100374.75;;;41.52;11.01
50105;BME280;47690;39.202;-77.198;2023-05-07T12:13:59;100388.66;;;42.05;10.71
50105;BME280;47690;39.202;-77.198;2023-05-07T12:16:29;100389.97;;;42.45;10.21
50105;BME280;47690;39.202;-77.198;2023-05-07T12:19:00;100390.34;;;42.49;10.46
50105;BME280;47690;39.202;-77.198;2023-05-07T12:21:30;100393.03;;;42.49;10.29
50105;BME280;47690;39.202;-77.198;2023-05-07T12:24:01;100390.72;;;42.76;10.24
50105;BME280;47690;39.202;-77.198;2023-05-07T12:26:32;100396.84;;;42.71;10.38
50105;BME280;47690;39.202;-77.198;2023-05-07T12:29:06;100399.31;;;42.85;10.30
50105;BME280;47690;39.202;-77.198;2023-05-07T12:31:41;100405.00;;;42.95;10.54
50105;BME280;47690;39.202;-77.198;2023-05-07T12:34:11;100424.19;;;43.06;10.50
50105;BME280;47690;39.202;-77.198;2023-05-07T12:36:41;100423.47;;;43.10;10.34
50105;BME280;47690;39.202;-77.198;2023-05-07T12:39:12;100418.41;;;43.14;10.39
50105;BME280;47690;39.202;-77.198;2023-05-07T12:41:57;100425.72;;;43.37;10.71
50105;BME280;47690;39.202;-77.198;2023-05-07T12:44:34;100409.75;;;45.09;9.94
50105;BME280;47690;39.202;-77.198;2023-05-07T12:47:04;100410.59;;;43.53;9.84
50105;BME280;47690;39.202;-77.198;2023-05-07T12:49:34;100405.69;;;43.15;10.67
50105;BME280;47690;39.202;-77.198;2023-05-07T12:52:08;100395.69;;;43.15;10.67
50105;BME280;47690;39.202;-77.198;2023-05-07T12:54:40;100396.72;;;44.71;9.60
50105;BME280;47690;39.202;-77.198;2023-05-07T12:57:10;100395.19;;;43.30;10.76
50105;BME280;47690;39.202;-77.198;2023-05-07T12:59:42;100395.09;;;43.01;10.75
50105;BME280;47690;39.202;-77.198;2023-05-07T13:02:13;100394.50;;;43.23;11.10
50105;BME280;47690;39.202;-77.198;2023-05-07T13:04:48;100384.38;;;43.18;11.11
50105;BME280;47690;39.202;-77.198;2023-05-07T13:07:18;100369.38;;;43.27;11.04
50105;BME280;47690;39.202;-77.198;2023-05-07T13:09:50;100360.31;;;43.22;11.40
50105;BME280;47690;39.202;-77.198;2023-05-07T13:12:19;100349.38;;;43.17;10.99
50105;BME280;47690;39.202;-77.198;2023-05-07T13:14:48;100346.59;;;43.52;11.17
50105;BME280;47690;39.202;-77.198;2023-05-07T13:17:18;100340.63;;;43.67;10.92
50105;BME280;47690;39.202;-77.198;2023-05-07T13:19:49;100338.22;;;43.54;11.08
50105;BME280;47690;39.202;-77.198;2023-05-07T13:22:19;100339.72;;;44.20;10.42